• Join FlightAware (Why Join?)
  • Login
  • US Flag 
01:47PM EST


 

Airport Tracker/Info


-or-


 

Live Flight TrackerFlight Track Log ✈ N340WJ ✈ 29-Apr-2013 ✈ KFAR - KANE

Flight Track Log - Related Links

Times and Time Zones

All times are in EDT time to prevent confusion due to time zone crossing. See the N340WJ flight status page for this flight to view local times or setup timezone preferences in your user account.

Time Position Orientation Groundspeed Altitude Reporting Facility
EDT Latitude Longitude Course Direction KTS MPH feet Rate Location/Type
11:53AM 46.8967 -96.8131 122° Southeast 99 114 1,700  Level Minneapolis Center
11:54AM 46.8794 -96.7728 122° Southeast 117 135 2,700 900 Climbing Minneapolis Center
11:55AM 46.8597 -96.7350 127° Southeast 114 131 3,600 780 Climbing Minneapolis Center
11:56AM 46.8394 -96.6928 125° Southeast 120 138 4,400 780 Climbing Minneapolis Center
11:57AM 46.8183 -96.6483 125° Southeast 125 144 5,300 780 Climbing Minneapolis Center
11:59AM 46.7983 -96.6064 125° Southeast 130 150 6,100 780 Climbing Minneapolis Center
12:00PM 46.7753 -96.5597 126° Southeast 135 155 7,000 840 Climbing Minneapolis Center
12:01PM 46.7519 -96.5103 125° Southeast 141 162 7,900 960 Climbing Minneapolis Center
12:02PM 46.7281 -96.4611 125° Southeast 142 163 9,000 900 Climbing Minneapolis Center
12:03PM 46.7067 -96.4169 125° Southeast 139 160 9,800 780 Climbing Minneapolis Center
12:04PM 46.6811 -96.3669 127° Southeast 145 167 10,600 540 Climbing Minneapolis Center
12:05PM 46.6536 -96.3106 125° Southeast 161 185 11,000 180 Climbing Minneapolis Center
12:06PM 46.6203 -96.2425 125° Southeast 195 224 11,000  Level Minneapolis Center
12:07PM 46.5875 -96.1767 126° Southeast 192 221 11,000  Level Minneapolis Center
12:08PM 46.5600 -96.1203 125° Southeast 192 221 11,000  Level Minneapolis Center
12:09PM 46.5261 -96.0508 125° Southeast 189 217 11,000  Level Minneapolis Center
12:10PM 46.4942 -95.9875 126° Southeast 186 214 11,000  Level Minneapolis Center
12:11PM 46.4631 -95.9236 125° Southeast 186 214 11,000  Level Minneapolis Center
12:12PM 46.4342 -95.8644 125° Southeast 188 216 11,100  Climbing Minneapolis Center
12:13PM 46.4039 -95.8042 126° Southeast 193 222 11,100  Level Minneapolis Center
12:14PM 46.3750 -95.7456 126° Southeast 187 215 11,100  Level Minneapolis Center
12:15PM 46.3389 -95.6717 125° Southeast 187 215 11,100  Level Minneapolis Center
12:16PM 46.3078 -95.6111 127° Southeast 187 215 11,100  Level Minneapolis Center
12:17PM 46.2778 -95.5517 126° Southeast 186 214 11,100  Level Minneapolis Center
12:18PM 46.2486 -95.4942 126° Southeast 184 212 11,100  Level Minneapolis Center
12:19PM 46.2186 -95.4336 126° Southeast 182 209 11,100  Level Minneapolis Center
12:20PM 46.1889 -95.3731 125° Southeast 183 211 11,100  Level Minneapolis Center
12:21PM 46.1586 -95.3142 127° Southeast 183 211 11,100  Level Minneapolis Center
12:22PM 46.1292 -95.2547 126° Southeast 183 211 11,100  Level Minneapolis Center
12:23PM 46.0933 -95.1836 126° Southeast 183 211 11,100  Level Minneapolis Center
12:24PM 46.0633 -95.1239 126° Southeast 184 212 11,100  Level Minneapolis Center
12:25PM 46.0319 -95.0642 127° Southeast 186 214 11,100  Level Minneapolis Center
12:26PM 46.0028 -95.0069 126° Southeast 187 215 11,100  Level Minneapolis Center
12:27PM 45.9731 -94.9469 125° Southeast 185 213 11,100  Level Minneapolis Center
12:29PM 45.9364 -94.8772 127° Southeast 184 212 11,100  Level Minneapolis Center
12:30PM 45.9011 -94.8072 126° Southeast 183 211 11,100  Level Minneapolis Center
12:31PM 45.8708 -94.7472 126° Southeast 184 212 11,100  Level Minneapolis Center
12:32PM 45.8353 -94.6789 127° Southeast 182 209 11,100  Level Minneapolis Center
12:33PM 45.8053 -94.6200 126° Southeast 183 211 11,100  Level Minneapolis Center
12:34PM 45.7742 -94.5631 128° Southeast 183 211 11,100  Level Minneapolis Center
12:35PM 45.7381 -94.4914 126° Southeast 184 212 11,100 -60 Level Minneapolis Center
12:36PM 45.7078 -94.4333 127° Southeast 184 212 11,000 -420 Descending Minneapolis Center
12:37PM 45.6744 -94.3717 128° Southeast 191 220 10,300 -720 Descending Minneapolis Center
12:38PM 45.6450 -94.2983 120° Southeast 206 237 9,600 -720 Descending Minneapolis Center
12:39PM 45.6139 -94.2294 123° Southeast 208 239 8,900 -720 Descending Minneapolis Center
12:40PM 45.5831 -94.1614 123° Southeast 203 234 8,200 -780 Descending Minneapolis Center
12:41PM 45.5464 -94.0817 123° Southeast 201 231 7,400 -780 Descending Minneapolis Center
12:42PM 45.5161 -94.0150 123° Southeast 201 231 6,700 -660 Descending Minneapolis Center
12:43PM 45.4875 -93.9500 122° Southeast 193 222 6,100 -540 Descending Minneapolis Center
12:44PM 45.4575 -93.8867 124° Southeast 192 221 5,600 -540 Descending Minneapolis Center
12:45PM 45.4289 -93.8231 123° Southeast 190 219 5,000 -300 Descending Minneapolis Center
12:46PM 45.4011 -93.7631 123° Southeast 182 209 5,000 -240 Level Minneapolis Center
12:47PM 45.3689 -93.6931 123° Southeast 179 206 4,600 -480 Descending Minneapolis Center
12:48PM 45.3394 -93.6300 124° Southeast 189 217 4,100 -300 Descending Minneapolis Center
12:49PM 45.3125 -93.5697 122° Southeast 183 211 4,100  Level Minneapolis Center
12:50PM 45.2858 -93.5136 124° Southeast 173 199 4,100 -300 Level Minneapolis Center
12:51PM 45.2600 -93.4575 123° Southeast 171 197 3,600 -600 Descending Minneapolis Center
12:52PM 45.2306 -93.3956 124° Southeast 187 215 2,900 -660 Descending Minneapolis Center
12:53PM 45.1972 -93.3319 127° Southeast 172 198 2,300 -360 Descending Minneapolis Center
12:55PM 45.1711 -93.2925 133° Southeast 158 182 2,200 -180 Descending Minneapolis Center
12:56PM 45.1450 -93.2786 159° South 118 136 2,000 -480 Descending Minneapolis Center
12:57PM 45.1458 -93.2356 88° East 111 128 1,300 -480 Descending Minneapolis Center
12:58PM 45.1444 -93.1958 93° East 109 125 1,100 -240 Descending Minneapolis Center